Time;durP1;ratioP1;P1;durP2;ratioP2;P2;SDS_P1;SDS_P2;PMS_P1;PMS_P2;Temp;Humidity;BMP_temperature;BMP_pressure;BME280_temperature;BME280_humidity;BME280_pressure;Samples;Min_cycle;Max_cycle;Signal;HPM_P1;HPM_P2
2022/01/29 13:54:39;;;;;;;9.98;3.10;;;;;;;-0.10;83.78;142250.11;1820413;78;22737;-59
2022/01/29 13:57:08;;;;;;;6.62;2.47;;;;;;;-0.14;83.44;142240.19;1791609;80;21080;-59
2022/01/29 13:59:37;;;;;;;5.62;2.42;;;;;;;-0.14;83.51;142240.19;1793298;79;20972;-59
2022/01/29 14:02:07;;;;;;;5.72;2.52;;;;;;;-0.11;83.24;142247.64;1736265;80;21053;-59
2022/01/29 14:04:38;;;;;;;8.10;2.60;;;;;;;-0.09;83.21;142252.63;1772025;80;20985;-60
2022/01/29 14:07:12;;;;;;;4.60;2.00;;;;;;;-0.09;82.10;142253.86;1790597;80;21051;-59
2022/01/29 14:12:22;;;;;;;5.05;2.20;;;;;;;-0.14;81.88;142240.19;1794099;80;21015;-59
2022/01/29 14:14:54;;;;;;;4.53;2.08;;;;;;;-0.14;81.66;142240.19;1779530;80;21515;-59
2022/01/29 14:17:37;;;;;;;6.10;2.90;;;;;;;-0.15;81.60;142238.97;1790701;80;21051;-59
2022/01/29 14:20:12;;;;;;;5.00;2.40;;;;;;;-0.15;81.59;142237.69;1773802;80;21042;-59
2022/01/29 14:22:45;;;;;;;6.92;2.72;;;;;;;-0.17;81.30;142233.98;1792203;80;21035;-59
2022/01/29 14:25:18;;;;;;;6.15;2.50;;;;;;;-0.15;81.18;142237.69;1790303;80;21110;-60
2022/01/29 14:27:45;;;;;;;5.53;2.50;;;;;;;-0.13;81.13;142243.89;1793728;80;20987;-59
2022/01/29 14:30:13;;;;;;;4.78;2.87;;;;;;;-0.07;81.05;142258.84;1792926;80;21004;-59
2022/01/29 14:32:43;;;;;;;4.67;2.10;;;;;;;-0.08;80.19;142256.31;1783414;80;21041;-59
2022/01/29 14:35:13;;;;;;;4.40;2.40;;;;;;;-0.13;79.34;142242.66;1792852;80;21029;-60
2022/01/29 14:37:40;;;;;;;6.25;2.50;;;;;;;-0.15;79.03;142238.97;1793732;80;21477;-59
2022/01/29 14:40:11;;;;;;;7.37;3.12;;;;;;;-0.15;78.63;142237.69;1789248;80;21015;-60
2022/01/29 14:42:41;;;;;;;7.22;2.70;;;;;;;-0.15;78.68;142237.69;1791356;80;20991;-60
2022/01/29 14:45:12;;;;;;;4.83;2.27;;;;;;;-0.20;78.02;142225.25;1792697;80;21035;-60
2022/01/29 14:47:44;;;;;;;5.45;2.10;;;;;;;-0.23;77.77;142219.03;1790482;79;21034;-60
2022/01/29 14:50:09;;;;;;;4.42;2.00;;;;;;;-0.27;76.82;142210.36;1791271;80;21541;-60
2022/01/29 14:52:40;;;;;;;3.55;1.98;;;;;;;-0.25;76.45;142215.34;1789321;80;20995;-60
2022/01/29 14:55:09;;;;;;;6.12;2.37;;;;;;;-0.23;76.56;142220.33;1783151;80;21050;-60
2022/01/29 14:57:36;;;;;;;4.67;2.45;;;;;;;-0.18;76.46;142230.23;1775795;80;20972;-59
2022/01/29 15:00:08;;;;;;;4.92;2.35;;;;;;;-0.17;76.29;142233.98;1769617;80;21032;-59
2022/01/29 15:02:35;;;;;;;6.83;2.87;;;;;;;-0.16;76.65;142236.45;1763336;80;20950;-59
2022/01/29 15:05:03;;;;;;;4.92;2.17;;;;;;;-0.16;76.78;142235.22;1768703;80;21052;-59
2022/01/29 15:07:30;;;;;;;3.90;1.92;;;;;;;-0.16;76.86;142236.45;1770026;80;21013;-60
2022/01/29 15:09:57;;;;;;;5.62;2.17;;;;;;;-0.11;77.15;142247.64;1768711;80;21494;-59
2022/01/29 15:12:23;;;;;;;4.12;1.77;;;;;;;-0.10;77.20;142250.11;1770547;80;21000;-59
2022/01/29 15:14:50;;;;;;;4.30;1.70;;;;;;;-0.10;77.37;142250.11;1764341;80;21036;-58
2022/01/29 15:17:17;;;;;;;4.10;1.62;;;;;;;-0.07;77.71;142258.84;1750254;81;20997;-58
2022/01/29 15:19:44;;;;;;;2.60;1.50;;;;;;;-0.03;77.71;142268.75;1767634;80;21015;-59
2022/01/29 15:22:12;;;;;;;4.90;2.05;;;;;;;0.01;77.49;142277.48;1768768;80;21050;-60
2022/01/29 15:24:38;;;;;;;3.75;1.67;;;;;;;-0.06;77.11;142261.30;1764199;80;21329;-59
2022/01/29 15:27:06;;;;;;;5.00;2.10;;;;;;;-0.12;77.15;142245.17;1772359;80;21010;-59
2022/01/29 15:29:33;;;;;;;3.75;1.50;;;;;;;-0.17;77.43;142232.75;1771069;80;21026;-59
2022/01/29 15:31:59;;;;;;;5.05;2.50;;;;;;;-0.25;77.11;142215.34;1720365;82;21079;-59
2022/01/29 15:34:26;;;;;;;3.80;2.00;;;;;;;-0.31;77.51;142199.17;1773939;80;21501;-59
2022/01/29 15:36:53;;;;;;;5.62;2.27;;;;;;;-0.31;77.74;142199.17;1710640;83;21022;-59
2022/01/29 15:39:20;;;;;;;4.30;2.10;;;;;;;-0.34;77.69;142192.95;1769928;80;21054;-60
2022/01/29 15:41:47;;;;;;;4.60;2.10;;;;;;;-0.34;77.89;142192.95;1768456;80;20977;-60
2022/01/29 15:44:13;;;;;;;6.62;2.77;;;;;;;-0.34;77.64;142192.95;1772432;80;21016;-59
2022/01/29 15:46:40;;;;;;;5.92;2.17;;;;;;;-0.34;77.60;142192.95;1768026;80;21010;-59
2022/01/29 15:49:07;;;;;;;8.93;2.47;;;;;;;-0.35;77.79;142190.50;1769176;80;21000;-61
2022/01/29 15:51:34;;;;;;;5.92;1.87;;;;;;;-0.34;77.66;142192.95;1769018;81;20962;-59
2022/01/29 15:54:01;;;;;;;5.42;2.20;;;;;;;-0.36;77.27;142187.97;1770018;80;21073;-59
2022/01/29 15:56:28;;;;;;;5.12;2.22;;;;;;;-0.36;77.38;142186.75;1738564;81;21536;-60
2022/01/29 15:58:55;;;;;;;6.08;1.82;;;;;;;-0.33;77.59;142194.19;1707080;83;21509;-58
2022/01/29 16:01:22;;;;;;;4.85;1.90;;;;;;;-0.33;77.20;142195.47;1741141;82;21071;-59
2022/01/29 16:03:51;;;;;;;3.37;1.65;;;;;;;-0.36;76.76;142187.97;1712895;83;21027;-59
2022/01/29 16:06:18;;;;;;;2.87;1.50;;;;;;;-0.36;76.39;142186.75;1738554;82;21087;-58
2022/01/29 16:08:51;;;;;;;4.80;2.40;;;;;;;-0.41;76.58;142174.31;1706424;83;21110;-59
2022/01/29 16:11:18;;;;;;;5.12;2.27;;;;;;;-0.39;77.01;142180.53;1722513;83;21012;-59
2022/01/29 16:13:46;;;;;;;7.22;2.30;;;;;;;-0.30;77.54;142202.91;1713412;83;21019;-58
2022/01/29 16:16:13;;;;;;;4.15;1.62;;;;;;;-0.16;77.81;142235.22;1724827;83;21028;-59
2022/01/29 16:18:40;;;;;;;4.87;2.20;;;;;;;-0.14;77.57;142241.44;1706124;83;21075;-58
2022/01/29 16:21:08;;;;;;;5.55;2.12;;;;;;;-0.17;77.54;142232.75;1724605;83;21051;-58
2022/01/29 16:23:39;;;;;;;3.95;2.08;;;;;;;-0.20;77.34;142226.53;1717274;83;21032;-59
2022/01/29 16:26:07;;;;;;;5.17;2.02;;;;;;;-0.23;77.20;142220.33;1751498;82;21040;-58
2022/01/29 16:28:35;;;;;;;4.30;2.02;;;;;;;-0.23;77.50;142220.33;1739055;82;21201;-58
2022/01/29 16:31:02;;;;;;;4.42;1.90;;;;;;;-0.25;77.14;142214.11;1713019;82;21555;-57
2022/01/29 16:33:29;;;;;;;6.95;2.37;;;;;;;-0.34;77.05;142191.72;1740557;82;21059;-59
2022/01/29 16:35:56;;;;;;;4.20;2.08;;;;;;;-0.38;77.44;142183.05;1745373;82;21058;-59
2022/01/29 16:38:22;;;;;;;6.22;1.85;;;;;;;-0.34;77.67;142192.95;1718750;83;21028;-59
